Time;durP1;ratioP1;P1;durP2;ratioP2;P2;SDS_P1;SDS_P2;PMS_P1;PMS_P2;Temp;Humidity;BMP_temperature;BMP_pressure;BME280_temperature;BME280_humidity;BME280_pressure;Samples;Min_cycle;Max_cycle;Signal;HPM_P1;HPM_P2
2022/04/23 00:01:12;;;;;;;14.27;2.38;;;;;;;14.77;43.71;94002.38;5013277;28;20026;-79
2022/04/23 00:03:38;;;;;;;9.90;4.00;;;;;;;14.79;43.36;94012.56;4995468;28;20048;-79
2022/04/23 00:06:04;;;;;;;4.85;2.42;;;;;;;14.80;43.38;94017.53;5011641;28;20026;-79
2022/04/23 00:08:30;;;;;;;5.55;2.95;;;;;;;14.77;43.56;94005.00;4996886;28;20030;-79
2022/04/23 00:10:55;;;;;;;7.22;2.67;;;;;;;14.75;43.55;94012.34;5022579;28;20022;-79
2022/04/23 00:13:21;;;;;;;4.95;2.25;;;;;;;14.69;43.14;94008.22;5000464;28;20048;-79
2022/04/23 00:15:46;;;;;;;7.40;2.80;;;;;;;14.61;43.70;94006.19;5016263;28;20030;-79
2022/04/23 00:18:12;;;;;;;13.80;2.58;;;;;;;14.55;43.48;93996.84;5015323;28;20116;-78
2022/04/23 00:20:38;;;;;;;3.60;2.70;;;;;;;14.47;44.07;93994.81;4999275;28;20026;-78
2022/04/23 00:23:04;;;;;;;5.97;2.60;;;;;;;14.44;44.13;93992.75;5015489;28;20041;-79
2022/04/23 00:25:30;;;;;;;11.30;2.53;;;;;;;14.40;44.25;93995.91;5015271;28;20042;-79
2022/04/23 00:27:56;;;;;;;8.05;3.08;;;;;;;14.38;44.19;93979.69;5000276;28;20038;-79
2022/04/23 00:30:21;;;;;;;7.30;2.88;;;;;;;14.37;44.11;93991.22;5016163;28;20037;-79
2022/04/23 00:32:48;;;;;;;6.22;3.15;;;;;;;14.39;44.28;93994.34;5017570;28;20037;-79
2022/04/23 00:35:17;;;;;;;13.25;2.85;;;;;;;14.40;44.44;93985.44;5000024;28;20482;-79
2022/04/23 00:37:44;;;;;;;12.65;3.05;;;;;;;14.42;44.41;93983.31;4998590;28;20105;-79
2022/04/23 00:40:20;;;;;;;6.78;2.70;;;;;;;14.44;44.30;93979.69;4999602;28;20068;-79
2022/04/23 00:42:56;;;;;;;9.63;2.58;;;;;;;14.44;44.39;93984.91;5015637;28;20432;-79
2022/04/23 00:45:23;;;;;;;11.73;3.50;;;;;;;14.44;43.87;93982.28;5025282;28;20044;-79
2022/04/23 00:47:49;;;;;;;11.60;5.63;;;;;;;14.47;44.15;93992.97;5000964;28;20080;-79
2022/04/23 00:50:14;;;;;;;7.00;3.85;;;;;;;14.48;44.46;93988.53;5022898;28;20041;-78
2022/04/23 00:52:40;;;;;;;7.47;3.65;;;;;;;14.47;44.10;93990.38;5025234;28;20347;-79
2022/04/23 00:55:06;;;;;;;6.93;3.60;;;;;;;14.46;44.15;94001.09;5028781;28;20092;-79
2022/04/23 00:57:32;;;;;;;9.57;3.92;;;;;;;14.47;44.40;93995.59;5024057;28;20030;-79
2022/04/23 00:59:58;;;;;;;9.27;4.18;;;;;;;14.42;44.22;94004.25;5019161;28;20037;-79
2022/04/23 01:02:23;;;;;;;10.93;4.15;;;;;;;14.46;44.49;94001.88;5013509;28;20108;-78
2022/04/23 01:04:49;;;;;;;16.40;3.70;;;;;;;14.41;44.66;94007.13;5013699;28;20030;-78
2022/04/23 01:07:14;;;;;;;9.50;2.80;;;;;;;14.40;44.70;94006.34;5014438;28;20034;-78
2022/04/23 01:09:44;;;;;;;6.75;2.50;;;;;;;14.37;45.06;94006.91;5012978;28;20049;-78
2022/04/23 01:12:10;;;;;;;4.57;2.03;;;;;;;14.38;44.81;93998.00;5015987;28;20042;-78
2022/04/23 01:15:05;;;;;;;3.75;2.72;;;;;;;14.40;45.12;93997.75;5034693;28;20042;-78
2022/04/23 01:17:31;;;;;;;6.50;2.83;;;;;;;14.40;45.22;93998.50;5033338;28;20022;-78
2022/04/23 01:19:56;;;;;;;8.25;2.75;;;;;;;14.37;45.20;93982.59;5021168;28;20038;-78
2022/04/23 01:22:23;;;;;;;6.55;2.47;;;;;;;14.39;45.23;93983.88;5012807;28;20025;-78
2022/04/23 01:24:50;;;;;;;4.53;2.70;;;;;;;14.38;45.49;93984.94;4996469;28;20088;-78
2022/04/23 01:27:16;;;;;;;7.35;3.25;;;;;;;14.34;45.44;93983.94;5012594;28;20030;-78
2022/04/23 01:29:42;;;;;;;7.63;3.03;;;;;;;14.28;46.05;93979.78;4996075;28;20029;-78
2022/04/23 01:32:07;;;;;;;8.00;3.17;;;;;;;14.34;45.91;93986.53;5013452;28;20034;-78
2022/04/23 01:34:32;;;;;;;7.75;3.00;;;;;;;14.37;45.81;93993.84;5013816;28;20034;-79
2022/04/23 01:36:58;;;;;;;7.18;2.90;;;;;;;14.41;45.80;93997.47;5012807;28;20036;-78
2022/04/23 01:39:23;;;;;;;8.20;3.63;;;;;;;14.43;45.88;93999.78;5020338;28;20038;-79
2022/04/23 01:41:49;;;;;;;15.43;4.78;;;;;;;14.44;45.71;93998.00;5012773;28;20034;-79
2022/04/23 01:44:14;;;;;;;6.13;2.58;;;;;;;14.46;45.17;93994.03;5013575;28;20042;-78
2022/04/23 01:46:40;;;;;;;5.63;2.42;;;;;;;14.33;45.61;94005.91;5015083;28;20022;-78
2022/04/23 01:49:05;;;;;;;7.80;2.13;;;;;;;14.28;46.08;94003.31;5015275;28;20029;-78
2022/04/23 01:51:31;;;;;;;4.45;2.30;;;;;;;14.19;46.74;94010.19;5003391;28;20038;-78
2022/04/23 01:54:08;;;;;;;8.55;2.72;;;;;;;14.07;47.02;94012.38;5009944;23;20038;-78
2022/04/23 01:56:34;;;;;;;13.18;2.70;;;;;;;13.98;46.90;94006.16;4999132;28;20052;-79
2022/04/23 01:59:00;;;;;;;11.48;2.70;;;;;;;13.89;47.49;93994.72;5017665;28;20069;-79
2022/04/23 02:01:25;;;;;;;8.55;3.90;;;;;;;13.84;47.68;94000.00;5018238;28;20038;-79
2022/04/23 02:03:51;;;;;;;5.18;2.78;;;;;;;13.82;47.54;94005.47;5013745;28;20056;-79
2022/04/23 02:06:17;;;;;;;6.60;2.58;;;;;;;13.84;47.60;94007.84;5013617;28;20026;-79
2022/04/23 02:08:43;;;;;;;10.20;2.95;;;;;;;13.80;47.81;94013.59;4997232;28;20448;-79
2022/04/23 02:11:08;;;;;;;13.10;2.92;;;;;;;13.80;47.71;94016.19;4996624;28;20021;-79
2022/04/23 02:13:34;;;;;;;8.25;3.20;;;;;;;13.82;47.76;94013.31;5014015;28;20030;-78
2022/04/23 02:16:00;;;;;;;23.10;4.13;;;;;;;13.85;48.00;94004.97;5011058;28;20088;-78
2022/04/23 02:18:26;;;;;;;5.75;3.40;;;;;;;13.88;47.77;94008.84;5010732;28;20026;-78
2022/04/23 02:20:52;;;;;;;20.27;4.25;;;;;;;13.90;47.79;94002.31;5010353;28;20040;-78
2022/04/23 02:23:18;;;;;;;11.95;2.70;;;;;;;13.90;47.69;94006.75;4994856;28;20404;-78
2022/04/23 02:25:43;;;;;;;6.25;2.60;;;;;;;13.87;47.59;94008.06;4995848;28;20040;-79
2022/04/23 02:28:09;;;;;;;9.43;2.95;;;;;;;13.87;47.93;94012.53;5014023;28;20556;-79
2022/04/23 02:30:34;;;;;;;5.93;2.72;;;;;;;13.85;47.93;94009.41;5014263;28;20084;-79
2022/04/23 02:33:00;;;;;;;14.70;3.55;;;;;;;13.84;48.02;94013.84;4997994;28;20036;-79
2022/04/23 02:35:26;;;;;;;22.85;3.80;;;;;;;13.86;47.81;94016.97;4997499;28;20053;-79
2022/04/23 02:37:57;;;;;;;10.50;3.47;;;;;;;13.86;47.70;94018.81;5015196;28;20057;-79
2022/04/23 02:40:23;;;;;;;11.33;3.40;;;;;;;13.84;48.18;94018.28;5014132;28;20060;-79
2022/04/23 02:42:51;;;;;;;11.30;3.47;;;;;;;13.81;48.25;94015.16;5013202;28;20038;-79
2022/04/23 02:45:20;;;;;;;5.93;3.03;;;;;;;13.79;48.00;94017.25;5013079;28;20055;-79
2022/04/23 02:47:48;;;;;;;16.70;3.30;;;;;;;13.82;47.70;94021.16;5012222;28;20100;-79
2022/04/23 02:50:14;;;;;;;8.00;3.03;;;;;;;13.85;48.06;94014.63;5014346;28;20651;-79
2022/04/23 02:52:42;;;;;;;10.32;2.90;;;;;;;13.88;47.81;94008.84;5019109;28;20029;-79
2022/04/23 02:55:07;;;;;;;4.78;2.85;;;;;;;13.88;47.91;94011.47;5017491;28;20029;-78
2022/04/23 02:57:33;;;;;;;7.13;2.78;;;;;;;13.92;48.22;94022.94;5015248;28;20460;-79
2022/04/23 02:59:59;;;;;;;4.93;2.60;;;;;;;13.94;47.79;94018.22;5013856;28;20026;-79
2022/04/23 03:02:24;;;;;;;10.20;4.03;;;;;;;13.96;48.08;94009.03;4999101;28;20030;-79
2022/04/23 03:04:50;;;;;;;9.07;3.13;;;;;;;13.99;47.82;94018.16;5013378;28;20048;-79
2022/04/23 03:07:15;;;;;;;12.48;3.70;;;;;;;14.02;47.68;94015.81;5014457;28;20025;-79
2022/04/23 03:09:40;;;;;;;8.75;2.97;;;;;;;14.04;48.06;94013.72;5013087;28;20034;-79
2022/04/23 03:12:06;;;;;;;10.40;3.10;;;;;;;13.96;48.11;94026.56;5013292;28;20033;-79
2022/04/23 03:14:32;;;;;;;7.80;3.00;;;;;;;13.84;48.95;94018.28;4997084;28;20040;-79
2022/04/23 03:16:58;;;;;;;13.02;3.70;;;;;;;13.70;49.46;94018.09;5013215;28;20033;-79
2022/04/23 03:19:24;;;;;;;12.07;3.50;;;;;;;13.73;49.06;94026.19;5011604;28;20038;-79
2022/04/23 03:21:49;;;;;;;6.93;3.13;;;;;;;13.73;49.44;94028.78;4997764;28;20041;-79
2022/04/23 03:24:15;;;;;;;17.02;3.42;;;;;;;13.74;49.11;94027.75;5019304;28;20033;-79
2022/04/23 03:26:41;;;;;;;6.55;3.30;;;;;;;13.78;49.26;94031.38;5022183;28;20033;-79
2022/04/23 03:29:07;;;;;;;8.00;3.33;;;;;;;13.78;49.39;94030.59;5008057;28;20037;-79
2022/04/23 03:31:32;;;;;;;20.92;3.38;;;;;;;13.79;49.43;94038.16;5017538;28;20045;-80
2022/04/23 03:33:58;;;;;;;5.38;2.90;;;;;;;13.80;49.18;94026.66;5015329;28;20038;-79
2022/04/23 03:36:23;;;;;;;6.85;3.40;;;;;;;13.71;49.56;94028.28;5014583;28;20141;-79
2022/04/23 03:38:49;;;;;;;9.77;3.28;;;;;;;13.68;49.21;94031.44;5014877;28;20042;-79
2022/04/23 03:41:15;;;;;;;8.98;3.50;;;;;;;13.77;49.45;94047.31;4995204;28;20030;-79
2022/04/23 03:43:40;;;;;;;13.98;3.85;;;;;;;13.81;49.77;94043.09;5014599;28;20046;-79
2022/04/23 03:46:05;;;;;;;24.25;4.32;;;;;;;13.79;50.33;94053.06;5016943;28;20030;-79
2022/04/23 03:48:31;;;;;;;11.40;4.97;;;;;;;13.84;50.91;94062.72;5019367;28;20022;-78
2022/04/23 03:50:56;;;;;;;16.10;6.90;;;;;;;13.80;50.75;94063.22;5036458;28;20036;-78
2022/04/23 03:53:22;;;;;;;20.73;6.72;;;;;;;13.88;50.43;94061.91;5015481;28;20034;-79
2022/04/23 03:55:47;;;;;;;16.25;8.40;;;;;;;13.92;50.05;94056.91;5014658;28;20042;-78
2022/04/23 03:58:13;;;;;;;19.20;10.27;;;;;;;13.93;50.54;94063.69;5015494;28;20367;-78
2022/04/23 04:00:39;;;;;;;21.48;8.90;;;;;;;13.93;50.11;94054.03;4997912;28;20037;-78
2022/04/23 04:03:04;;;;;;;23.65;9.43;;;;;;;13.87;50.70;94067.41;5014915;28;20026;-78
2022/04/23 04:05:31;;;;;;;29.95;13.85;;;;;;;13.89;50.70;94067.91;5015864;28;20088;-78
2022/04/23 04:07:56;;;;;;;27.73;12.75;;;;;;;13.93;50.12;94063.69;5015010;28;20100;-79
2022/04/23 04:10:22;;;;;;;19.52;11.30;;;;;;;13.96;50.57;94066.53;4997504;28;20966;-79
2022/04/23 04:12:48;;;;;;;26.63;11.65;;;;;;;14.00;50.27;94066.81;4997992;28;20152;-78
2022/04/23 04:15:16;;;;;;;29.52;13.73;;;;;;;14.00;49.95;94075.44;5016222;28;20036;-78
2022/04/23 04:17:47;;;;;;;22.50;12.48;;;;;;;14.04;50.21;94073.06;5015183;28;20030;-79
2022/04/23 04:20:13;;;;;;;30.23;14.82;;;;;;;14.09;50.07;94068.56;5015867;28;20033;-79
2022/04/23 04:22:39;;;;;;;30.95;14.43;;;;;;;14.16;49.96;94070.88;5014645;28;20121;-78
2022/04/23 04:25:06;;;;;;;24.63;13.25;;;;;;;14.27;49.64;94077.59;4999291;28;20030;-79
2022/04/23 04:27:33;;;;;;;30.08;14.30;;;;;;;14.39;49.14;94083.28;5015433;28;20107;-78
2022/04/23 04:29:59;;;;;;;28.58;12.57;;;;;;;14.50;49.20;94086.63;5015391;28;20089;-79
2022/04/23 04:32:25;;;;;;;37.28;13.40;;;;;;;14.63;48.37;94080.75;4998771;28;20108;-79
2022/04/23 04:34:50;;;;;;;36.88;13.00;;;;;;;14.75;48.70;94090.88;4999474;28;20034;-79
2022/04/23 04:37:15;;;;;;;30.42;9.60;;;;;;;14.83;48.15;94092.91;5016559;28;20030;-80
2022/04/23 04:39:42;;;;;;;26.42;9.77;;;;;;;15.01;47.48;94091.44;5017184;28;20836;-79
2022/04/23 04:42:08;;;;;;;13.15;6.25;;;;;;;15.18;46.92;94098.84;5001168;28;20048;-79
2022/04/23 04:44:34;;;;;;;16.13;3.95;;;;;;;15.32;45.94;94099.75;4999427;28;20533;-79
2022/04/23 04:46:59;;;;;;;11.43;5.53;;;;;;;15.42;45.90;94104.09;5031508;28;20021;-79
2022/04/23 04:49:25;;;;;;;18.92;7.90;;;;;;;15.49;46.61;94110.59;5015740;28;20041;-78
2022/04/23 04:51:51;;;;;;;17.60;6.10;;;;;;;15.54;46.10;94107.91;5014499;28;20100;-78
2022/04/23 04:54:18;;;;;;;13.43;6.65;;;;;;;15.60;45.68;94119.13;5015615;28;20029;-79
2022/04/23 04:56:44;;;;;;;37.63;16.38;;;;;;;15.71;47.69;94114.56;5014911;28;20053;-79
2022/04/23 04:59:10;;;;;;;50.53;17.10;;;;;;;16.01;47.61;94127.28;5015009;28;20117;-79
2022/04/23 05:01:35;;;;;;;57.17;21.48;;;;;;;16.31;47.31;94120.88;5016146;28;20037;-79
2022/04/23 05:04:01;;;;;;;25.80;13.35;;;;;;;16.83;44.42;94132.19;4998168;28;20034;-79
2022/04/23 05:06:26;;;;;;;30.17;11.10;;;;;;;18.23;42.02;94136.22;4998451;28;20087;-79
2022/04/23 05:08:51;;;;;;;18.27;7.18;;;;;;;18.86;38.99;94140.63;5014599;28;20021;-79
2022/04/23 05:11:17;;;;;;;14.57;5.03;;;;;;;18.19;40.11;94143.13;5014822;28;20025;-79
2022/04/23 05:13:42;;;;;;;9.70;4.10;;;;;;;17.47;41.71;94140.31;5016262;28;20034;-78
2022/04/23 05:16:08;;;;;;;14.43;3.05;;;;;;;16.77;43.51;94139.38;5006165;28;20034;-78
2022/04/23 05:18:36;;;;;;;9.50;3.22;;;;;;;16.16;45.44;94155.94;5021295;28;20036;-78
2022/04/23 05:21:02;;;;;;;9.13;3.45;;;;;;;15.83;46.70;94159.50;5037710;28;20034;-78
2022/04/23 05:23:27;;;;;;;12.23;3.53;;;;;;;15.72;46.80;94165.91;5025014;28;20041;-79
2022/04/23 05:25:53;;;;;;;8.40;4.43;;;;;;;15.63;47.13;94162.34;5013615;28;20061;-78
2022/04/23 05:28:18;;;;;;;7.10;3.90;;;;;;;15.48;48.13;94171.91;5013652;28;20030;-78
2022/04/23 05:30:44;;;;;;;14.63;4.20;;;;;;;15.37;49.16;94170.44;4996627;28;20040;-78
2022/04/23 05:33:10;;;;;;;11.65;4.05;;;;;;;15.45;49.88;94171.66;5012583;28;20030;-79
2022/04/23 05:35:35;;;;;;;14.55;4.95;;;;;;;15.52;50.09;94178.16;5013465;28;20037;-75
2022/04/23 05:38:01;;;;;;;14.15;4.30;;;;;;;15.57;50.81;94167.59;5014270;28;20316;-78
2022/04/23 05:40:26;;;;;;;11.23;4.18;;;;;;;15.59;51.02;94178.63;5023037;28;20041;-79
2022/04/23 05:42:55;;;;;;;14.07;3.88;;;;;;;15.68;51.16;94167.53;5025695;28;20038;-79
2022/04/23 05:45:21;;;;;;;8.57;3.28;;;;;;;15.77;51.54;94161.38;5027833;28;20022;-78
2022/04/23 05:47:46;;;;;;;6.40;2.78;;;;;;;15.99;51.11;94171.38;5042098;28;20037;-79
2022/04/23 05:50:12;;;;;;;5.10;2.75;;;;;;;16.60;49.95;94157.47;5013796;28;20022;-79
2022/04/23 05:52:37;;;;;;;9.20;2.58;;;;;;;18.12;46.90;94151.44;5011846;28;20022;-80
2022/04/23 05:55:05;;;;;;;5.75;2.40;;;;;;;20.42;41.37;94151.88;5025869;28;20037;-80
2022/04/23 05:57:33;;;;;;;6.40;3.17;;;;;;;22.10;38.05;94150.63;5020722;28;20049;-78
2022/04/23 05:59:59;;;;;;;5.00;1.98;;;;;;;23.70;34.14;94152.94;5010947;28;20040;-79
2022/04/23 06:02:24;;;;;;;5.03;2.70;;;;;;;24.91;32.29;94135.34;5026820;28;20022;-78
2022/04/23 06:04:50;;;;;;;5.03;1.90;;;;;;;25.42;30.67;94138.25;5028121;28;20029;-78
2022/04/23 06:07:16;;;;;;;3.58;2.25;;;;;;;25.03;31.29;94145.94;5028203;28;20485;-78
2022/04/23 06:09:42;;;;;;;5.57;2.22;;;;;;;24.88;31.42;94143.97;5008205;28;20057;-79
2022/04/23 06:12:08;;;;;;;4.53;2.08;;;;;;;25.04;31.13;94149.38;4999022;28;20073;-79
2022/04/23 06:14:33;;;;;;;8.68;2.80;;;;;;;24.98;31.19;94154.16;5012549;28;20022;-78
2022/04/23 06:16:59;;;;;;;11.20;2.30;;;;;;;24.62;31.75;94157.69;5011931;28;20472;-79
2022/04/23 06:19:24;;;;;;;8.68;3.05;;;;;;;24.00;32.73;94171.34;5030505;28;20092;-79
2022/04/23 06:21:50;;;;;;;3.88;2.58;;;;;;;23.08;34.42;94164.47;5016229;28;20026;-79
2022/04/23 06:24:15;;;;;;;4.88;2.85;;;;;;;22.57;35.10;94170.94;4995034;28;20045;-78
2022/04/23 06:26:41;;;;;;;8.90;2.53;;;;;;;21.86;36.26;94164.44;5012376;28;20417;-78
2022/04/23 06:29:06;;;;;;;16.70;3.25;;;;;;;21.45;37.52;94167.69;5010382;28;20045;-78
2022/04/23 06:31:32;;;;;;;12.55;2.90;;;;;;;21.18;38.06;94158.22;5009562;28;20036;-78
2022/04/23 06:33:57;;;;;;;6.22;2.58;;;;;;;21.38;38.38;94170.03;5023353;28;20038;-78
2022/04/23 06:36:23;;;;;;;8.65;2.72;;;;;;;21.78;37.60;94170.53;4991788;28;20026;-77
2022/04/23 06:38:48;;;;;;;9.90;2.65;;;;;;;22.02;36.77;94171.84;5006430;28;20642;-80
2022/04/23 06:41:14;;;;;;;5.93;2.28;;;;;;;22.15;36.43;94166.34;5009838;28;20049;-77
2022/04/23 06:43:40;;;;;;;11.05;2.70;;;;;;;22.41;35.79;94168.06;5009026;28;20045;-80
2022/04/23 06:46:05;;;;;;;5.20;2.55;;;;;;;22.37;36.62;94164.50;4992739;28;20545;-76
2022/04/23 06:48:30;;;;;;;5.85;2.30;;;;;;;22.59;35.92;94166.84;5009569;28;20112;-77
2022/04/23 06:50:56;;;;;;;8.45;2.78;;;;;;;22.10;36.89;94171.81;5009948;28;20437;-77
2022/04/23 06:53:21;;;;;;;7.22;2.75;;;;;;;21.80;36.91;94172.84;5009624;28;20034;-77
2022/04/23 06:55:47;;;;;;;5.63;2.70;;;;;;;21.60;37.76;94176.19;5006662;28;20044;-79
2022/04/23 06:58:15;;;;;;;7.85;2.53;;;;;;;21.45;38.14;94172.97;5007722;28;20037;-77
2022/04/23 07:00:41;;;;;;;6.65;2.58;;;;;;;20.99;38.87;94173.66;5007844;28;20038;-78
2022/04/23 07:03:07;;;;;;;9.45;2.45;;;;;;;20.71;39.76;94178.47;5011196;28;20069;-78
2022/04/23 07:05:33;;;;;;;5.53;2.63;;;;;;;20.53;40.50;94171.63;4998979;28;20042;-79
2022/04/23 07:08:02;;;;;;;9.23;2.85;;;;;;;20.76;39.66;94182.81;4996200;28;20032;-78
2022/04/23 07:10:31;;;;;;;6.82;2.80;;;;;;;21.12;39.69;94182.50;5011465;28;20049;-78
2022/04/23 07:12:57;;;;;;;4.57;2.30;;;;;;;21.22;38.03;94179.53;4994212;28;20100;-79
2022/04/23 07:15:23;;;;;;;9.18;2.72;;;;;;;21.28;38.18;94186.22;4994430;28;20041;-77
2022/04/23 07:17:49;;;;;;;5.53;3.10;;;;;;;20.85;40.03;94194.19;4996510;28;20502;-78
2022/04/23 07:20:16;;;;;;;5.70;2.30;;;;;;;21.10;39.24;94200.53;5017679;28;20042;-78
2022/04/23 07:24:02;;;;;;;5.63;2.80;;;;;;;20.56;40.06;94197.41;5016220;28;20419;-78
2022/04/23 07:25:28;;;;;;;7.82;2.58;;;;;;;20.66;40.12;94202.38;5012999;28;20038;-78
2022/04/23 07:27:53;;;;;;;4.00;2.83;;;;;;;20.95;40.53;94199.91;5015234;28;20548;-78
2022/04/23 07:30:19;;;;;;;10.32;2.28;;;;;;;21.24;38.86;94201.13;4999300;28;20042;-78
2022/04/23 07:32:44;;;;;;;9.57;2.75;;;;;;;21.06;39.12;94204.91;5015750;28;20478;-78
2022/04/23 07:37:54;;;;;;;16.48;2.60;;;;;;;20.67;39.11;94225.09;5016613;28;20049;-78
2022/04/23 07:40:19;;;;;;;8.25;2.45;;;;;;;20.87;38.64;94211.28;5017149;28;20026;-78
2022/04/23 07:42:45;;;;;;;9.38;2.38;;;;;;;20.94;38.89;94230.06;5000019;28;20078;-78
2022/04/23 07:45:10;;;;;;;8.95;2.47;;;;;;;20.91;39.57;94227.28;5014716;28;20045;-78
2022/04/23 07:47:36;;;;;;;4.20;2.35;;;;;;;20.71;40.26;94231.31;5016658;28;20532;-78
2022/04/23 07:50:02;;;;;;;6.22;2.58;;;;;;;20.38;41.50;94234.31;5016753;28;20037;-78
2022/04/23 07:52:28;;;;;;;6.30;2.65;;;;;;;20.01;43.03;94232.97;5015647;28;20149;-78
2022/04/23 07:54:53;;;;;;;9.57;2.50;;;;;;;19.85;43.40;94242.38;5014716;28;20076;-78
2022/04/23 07:57:22;;;;;;;8.95;2.30;;;;;;;19.59;44.15;94242.22;5015609;28;20025;-77
2022/04/23 07:59:48;;;;;;;7.70;2.53;;;;;;;19.59;44.04;94244.84;4999348;28;20036;-78
2022/04/23 08:02:13;;;;;;;7.20;3.05;;;;;;;19.72;44.20;94244.00;5000715;28;20038;-78
2022/04/23 08:04:39;;;;;;;9.68;2.67;;;;;;;19.85;43.74;94245.00;5016475;28;20176;-78
2022/04/23 08:07:04;;;;;;;5.68;2.72;;;;;;;19.85;44.02;94246.84;5014597;28;20042;-78
2022/04/23 08:09:31;;;;;;;10.95;2.30;;;;;;;19.56;44.07;94249.97;5015807;28;20096;-77
2022/04/23 08:11:57;;;;;;;8.30;3.20;;;;;;;19.43;45.18;94254.19;5015427;28;20493;-77
2022/04/23 08:14:22;;;;;;;6.40;2.47;;;;;;;19.48;44.42;94264.59;5015613;28;20100;-78
2022/04/23 08:16:49;;;;;;;6.72;2.40;;;;;;;19.76;44.03;94266.06;5018440;28;20420;-78
2022/04/23 08:19:17;;;;;;;8.68;1.92;;;;;;;19.81;42.90;94267.00;5002518;28;20128;-78
2022/04/23 08:21:43;;;;;;;6.47;2.00;;;;;;;19.83;43.07;94264.84;5018883;28;20042;-78
2022/04/23 08:24:08;;;;;;;10.13;1.95;;;;;;;19.79;42.48;94259.38;5016128;28;20052;-78
2022/04/23 08:26:33;;;;;;;7.95;1.67;;;;;;;19.73;42.11;94261.38;5002255;28;20038;-78
2022/04/23 08:31:43;;;;;;;6.60;1.90;;;;;;;19.55;42.63;94249.19;5014997;28;20116;-78
2022/04/23 08:34:09;;;;;;;5.20;2.25;;;;;;;19.88;41.93;94259.44;5008549;28;20872;-78
2022/04/23 08:36:37;;;;;;;5.10;2.00;;;;;;;20.19;41.52;94254.16;5009572;28;20498;-78
2022/04/23 08:39:07;;;;;;;10.23;2.13;;;;;;;20.58;40.30;94258.63;5010943;28;20041;-78
2022/04/23 08:41:34;;;;;;;5.32;1.58;;;;;;;20.42;39.61;94260.16;5010258;28;20053;-77
2022/04/23 08:44:06;;;;;;;3.88;1.90;;;;;;;20.30;40.09;94274.66;5010692;28;20516;-78
2022/04/23 08:46:41;;;;;;;5.00;1.38;;;;;;;20.47;39.74;94262.63;5010673;28;20034;-77
2022/04/23 08:49:16;;;;;;;7.28;1.65;;;;;;;20.55;38.42;94267.97;5027146;28;20049;-78
2022/04/23 08:51:45;;;;;;;3.53;1.30;;;;;;;20.39;39.03;94266.78;5011428;28;20037;-78
2022/04/23 08:54:13;;;;;;;6.07;1.85;;;;;;;20.44;38.94;94263.25;4995491;28;20034;-78
2022/04/23 08:56:40;;;;;;;4.28;2.08;;;;;;;20.21;39.21;94273.88;5010719;28;20036;-78
2022/04/23 08:59:06;;;;;;;8.95;2.10;;;;;;;20.11;39.84;94271.50;4995389;28;20541;-77
2022/04/23 09:01:35;;;;;;;4.35;1.45;;;;;;;20.07;39.91;94265.28;5011075;28;20030;-78
2022/04/23 09:04:01;;;;;;;5.57;1.98;;;;;;;20.00;40.20;94278.13;4996589;28;20042;-78
2022/04/23 09:06:45;;;;;;;4.50;1.10;;;;;;;19.97;39.45;94265.53;5010608;28;20030;-78
2022/04/23 09:09:12;;;;;;;4.15;1.00;;;;;;;19.70;39.60;94267.28;5011207;28;20159;-78
2022/04/23 09:11:39;;;;;;;3.35;1.20;;;;;;;19.52;40.30;94265.56;5010416;28;20029;-78
2022/04/23 09:14:04;;;;;;;3.80;1.25;;;;;;;19.66;41.22;94266.28;4994586;28;20125;-78
2022/04/23 09:24:55;;;;;;;5.68;1.77;;;;;;;20.87;38.41;94272.06;4999160;28;20072;-79
2022/04/23 09:27:21;;;;;;;1.83;1.45;;;;;;;20.95;38.40;94273.13;5014739;28;20120;-79
2022/04/23 09:30:06;;;;;;;6.80;2.25;;;;;;;21.09;38.36;94268.50;4996893;28;20034;-79
2022/04/23 09:32:31;;;;;;;18.10;3.00;;;;;;;21.24;38.37;94259.31;5000156;28;20410;-79
2022/04/23 09:35:08;;;;;;;9.75;2.97;;;;;;;21.32;38.32;94266.50;5017075;28;20527;-79
2022/04/23 09:40:19;;;;;;;11.32;5.40;;;;;;;21.27;37.98;94264.78;5022088;28;20053;-78
2022/04/23 09:43:15;;;;;;;16.45;3.88;;;;;;;21.34;37.74;94259.03;5010163;28;20041;-78
2022/04/23 09:45:43;;;;;;;6.38;2.53;;;;;;;21.29;38.14;94245.97;5016743;28;20069;-79
2022/04/23 09:48:12;;;;;;;8.63;2.40;;;;;;;21.31;37.84;94249.06;5017627;28;20136;-80
2022/04/23 09:50:38;;;;;;;8.02;2.60;;;;;;;21.40;38.28;94239.25;5017440;28;20045;-79
2022/04/23 09:53:14;;;;;;;8.80;1.60;;;;;;;21.43;37.48;94233.34;5014807;28;20034;-79
2022/04/23 09:55:39;;;;;;;3.25;1.83;;;;;;;21.47;37.39;94230.84;5013488;28;20088;-78
2022/04/23 09:58:07;;;;;;;8.88;1.70;;;;;;;21.54;37.28;94236.44;5011724;28;21325;-78
2022/04/23 10:00:43;;;;;;;4.38;2.45;;;;;;;21.49;36.93;94229.47;4995398;28;20030;-79
2022/04/23 10:03:09;;;;;;;8.30;1.88;;;;;;;21.50;37.41;94225.72;5011041;28;20433;-79
2022/04/23 10:05:41;;;;;;;6.60;2.08;;;;;;;21.62;37.08;94221.63;5014687;28;20129;-78
2022/04/23 10:08:11;;;;;;;8.80;2.27;;;;;;;21.72;37.69;94216.78;5011975;28;20041;-78
2022/04/23 10:10:45;;;;;;;8.30;2.05;;;;;;;21.87;37.54;94213.63;5011466;28;20570;-78
2022/04/23 10:13:11;;;;;;;4.45;2.80;;;;;;;21.79;37.27;94218.94;5012184;28;20053;-79
2022/04/23 10:15:38;;;;;;;13.65;2.47;;;;;;;21.92;37.00;94220.63;5013258;28;20125;-78
2022/04/23 10:18:08;;;;;;;12.98;2.92;;;;;;;22.11;37.40;94212.31;5011554;28;20049;-78
2022/04/23 10:20:33;;;;;;;13.02;2.65;;;;;;;22.40;36.75;94214.19;5010708;28;20037;-79
2022/04/23 10:23:17;;;;;;;8.02;2.28;;;;;;;22.57;35.31;94211.44;4994242;28;20030;-79
2022/04/23 10:25:50;;;;;;;7.47;2.22;;;;;;;22.10;35.71;94206.25;5011429;28;20034;-78
2022/04/23 10:28:16;;;;;;;12.10;2.45;;;;;;;21.45;37.14;94211.88;4995792;28;20038;-79
2022/04/23 10:30:46;;;;;;;9.02;2.10;;;;;;;21.35;37.73;94206.94;5025978;28;20465;-78
2022/04/23 10:33:25;;;;;;;7.20;2.20;;;;;;;21.23;37.95;94221.53;5010462;28;20034;-78
2022/04/23 10:36:09;;;;;;;9.93;2.35;;;;;;;21.19;38.38;94214.53;5011550;28;20037;-78
2022/04/23 10:38:38;;;;;;;14.30;3.35;;;;;;;20.94;38.78;94214.22;5011114;28;20493;-78
2022/04/23 10:41:05;;;;;;;11.25;2.72;;;;;;;20.87;39.26;94211.28;5013434;28;20044;-78
2022/04/23 10:43:31;;;;;;;13.35;2.65;;;;;;;20.76;39.10;94210.00;4994867;28;20046;-78
2022/04/23 10:45:56;;;;;;;13.13;2.72;;;;;;;20.71;39.36;94215.47;4994004;28;20056;-78
2022/04/23 10:48:26;;;;;;;15.25;3.38;;;;;;;20.82;38.75;94216.69;4994356;28;20398;-78
2022/04/23 10:51:20;;;;;;;16.90;2.67;;;;;;;20.82;38.78;94216.69;5012396;28;20946;-78
2022/04/23 10:53:49;;;;;;;5.68;2.20;;;;;;;20.75;39.14;94216.38;5029475;28;20053;-79
2022/04/23 10:56:16;;;;;;;9.50;2.42;;;;;;;20.74;39.42;94220.13;5013395;28;20775;-79
2022/04/23 10:58:41;;;;;;;17.83;2.88;;;;;;;20.78;39.46;94218.41;4996863;28;20085;-80
2022/04/23 11:01:31;;;;;;;10.32;3.28;;;;;;;20.81;39.42;94219.66;5013105;28;20057;-79
2022/04/23 11:04:06;;;;;;;9.35;2.28;;;;;;;20.77;39.22;94211.56;5035122;28;20037;-80
2022/04/23 11:12:32;;;;;;;8.32;2.13;;;;;;;20.08;39.17;94219.31;5016574;28;20073;-80
2022/04/23 11:15:00;;;;;;;18.65;2.10;;;;;;;19.98;39.59;94215.09;5017575;28;20050;-79
2022/04/23 11:17:30;;;;;;;7.45;2.00;;;;;;;19.74;39.65;94207.53;5018393;28;20101;-78
2022/04/23 11:19:55;;;;;;;8.68;2.20;;;;;;;19.30;41.43;94210.22;5014186;28;20030;-78
2022/04/23 11:22:21;;;;;;;7.45;2.38;;;;;;;19.32;41.24;94208.81;4994638;28;20030;-79
2022/04/23 11:24:48;;;;;;;15.85;3.03;;;;;;;19.41;42.22;94222.84;4995369;28;20105;-79
2022/04/23 11:27:48;;;;;;;11.80;2.30;;;;;;;19.54;40.74;94221.25;5012457;28;20022;-79
2022/04/23 11:30:13;;;;;;;9.07;2.03;;;;;;;19.60;41.02;94208.72;5025348;28;20042;-78
2022/04/23 11:32:39;;;;;;;7.20;2.28;;;;;;;19.64;41.42;94218.34;4994132;28;20077;-79
2022/04/23 11:35:05;;;;;;;11.27;1.92;;;;;;;19.70;41.61;94219.78;4998581;28;20053;-79
2022/04/23 11:37:34;;;;;;;6.43;2.65;;;;;;;19.67;41.21;94215.09;5028370;28;20081;-79
2022/04/23 11:40:10;;;;;;;5.32;1.88;;;;;;;19.73;41.14;94228.94;5004841;28;20033;-80
2022/04/23 11:42:39;;;;;;;10.20;2.13;;;;;;;19.71;41.49;94223.19;5013140;28;20655;-79
2022/04/23 11:45:06;;;;;;;9.18;2.78;;;;;;;19.87;41.19;94228.88;5014327;28;20046;-80
2022/04/23 11:47:31;;;;;;;12.55;2.70;;;;;;;19.94;42.03;94224.69;5012193;28;20022;-79
2022/04/23 11:50:09;;;;;;;10.07;2.33;;;;;;;19.83;44.01;94243.72;5010847;28;20404;-79
2022/04/23 11:52:34;;;;;;;15.98;2.38;;;;;;;19.71;45.00;94242.44;5012234;28;20026;-77